createdAt,value
2018-06-03T00:01:59.679Z,87.59
2018-06-03T00:04:27.169Z,87.91
2018-06-03T00:06:54.867Z,87.75
2018-06-03T00:09:22.444Z,87.75
2018-06-03T00:11:50.010Z,87.67
2018-06-03T00:14:17.481Z,87.12
2018-06-03T00:16:46.572Z,88.68
2018-06-03T00:19:14.237Z,88.62
2018-06-03T00:21:43.562Z,89.09
2018-06-03T00:24:11.187Z,89.59
2018-06-03T00:26:38.735Z,88.87
2018-06-03T00:29:06.202Z,88.51
2018-06-03T00:31:33.721Z,88.49
2018-06-03T00:34:01.237Z,88.31
2018-06-03T00:36:40.749Z,88.49
2018-06-03T00:39:08.525Z,90.08
2018-06-03T00:41:36.019Z,89.49
2018-06-03T00:44:03.498Z,88.79
2018-06-03T00:46:31.115Z,88.64
2018-06-03T00:48:58.627Z,88.42
2018-06-03T00:51:26.098Z,88.40
2018-06-03T00:53:53.654Z,88.22
2018-06-03T00:56:33.223Z,87.87
2018-06-03T00:59:00.723Z,87.83
2018-06-03T01:01:28.358Z,88.10
2018-06-03T01:03:55.850Z,87.69
2018-06-03T01:06:23.323Z,87.68
2018-06-03T01:08:50.821Z,87.93
2018-06-03T01:11:18.301Z,87.79
2018-06-03T01:13:45.894Z,87.85
2018-06-03T01:16:13.471Z,88.13
2018-06-03T01:18:41.011Z,87.88
2018-06-03T01:21:08.595Z,88.00
2018-06-03T01:23:36.166Z,88.40
2018-06-03T01:26:03.638Z,88.33
2018-06-03T01:28:31.244Z,88.17
2018-06-03T01:30:58.938Z,87.88
2018-06-03T01:33:26.534Z,88.22
2018-06-03T01:35:54.022Z,88.37
2018-06-03T01:38:21.518Z,89.05
2018-06-03T01:40:49.035Z,89.04
2018-06-03T01:43:16.631Z,88.41
2018-06-03T01:45:44.154Z,88.04
2018-06-03T01:48:11.677Z,87.94
2018-06-03T01:50:39.174Z,88.10
2018-06-03T01:53:06.684Z,88.16
2018-06-03T01:55:34.339Z,87.57
2018-06-03T01:58:02.022Z,87.99
2018-06-03T02:00:29.620Z,87.81
2018-06-03T02:02:57.108Z,87.71
2018-06-03T02:05:24.643Z,87.47
2018-06-03T02:07:52.139Z,88.07
2018-06-03T02:10:19.644Z,87.55
2018-06-03T02:12:47.224Z,87.74
2018-06-03T02:15:14.696Z,88.54
2018-06-03T02:17:42.186Z,88.14
2018-06-03T02:20:09.820Z,88.31
2018-06-03T02:22:37.420Z,88.65
2018-06-03T02:25:04.889Z,88.27
2018-06-03T02:27:32.396Z,88.26
2018-06-03T02:30:00.237Z,87.74
2018-06-03T02:32:27.763Z,87.76
2018-06-03T02:34:55.236Z,87.98
2018-06-03T02:37:22.714Z,88.16
2018-06-03T02:39:50.208Z,88.55
2018-06-03T02:42:17.687Z,88.17
2018-06-03T02:44:45.239Z,88.54
2018-06-03T02:47:12.803Z,88.52
2018-06-03T02:49:40.322Z,88.51
2018-06-03T02:52:07.841Z,88.27
2018-06-03T02:54:35.376Z,88.32
2018-06-03T02:57:02.933Z,87.65
2018-06-03T02:59:30.437Z,87.66
2018-06-03T03:01:57.911Z,88.30
2018-06-03T03:04:25.409Z,89.25
2018-06-03T03:06:52.887Z,89.09
2018-06-03T03:09:20.390Z,88.78
2018-06-03T03:11:47.979Z,89.50
2018-06-03T03:14:15.615Z,89.39
2018-06-03T03:16:43.193Z,89.32
2018-06-03T03:19:10.760Z,89.33
2018-06-03T03:21:38.295Z,88.53
2018-06-03T03:24:05.845Z,88.08
2018-06-03T03:26:33.319Z,88.71
2018-06-03T03:29:00.823Z,88.58
2018-06-03T03:31:28.299Z,88.79
2018-06-03T03:33:55.791Z,88.64
2018-06-03T03:36:23.433Z,88.47
2018-06-03T03:38:50.932Z,89.36
2018-06-03T03:41:18.627Z,89.78
2018-06-03T03:43:46.137Z,90.72
2018-06-03T03:46:13.667Z,90.35
2018-06-03T03:48:41.254Z,89.10
2018-06-03T03:51:08.735Z,89.21
2018-06-03T03:53:36.262Z,89.10
2018-06-03T03:56:03.732Z,88.99
2018-06-03T03:58:31.232Z,88.99
2018-06-03T04:00:58.723Z,88.63
2018-06-03T04:03:26.218Z,89.77
2018-06-03T04:05:53.687Z,90.60
2018-06-03T04:08:21.199Z,90.50
2018-06-03T04:10:48.755Z,90.89
2018-06-03T04:13:16.320Z,91.24
2018-06-03T04:15:43.794Z,91.46
2018-06-03T04:18:11.342Z,91.46
2018-06-03T04:20:38.895Z,92.07
2018-06-03T04:23:06.846Z,92.49
2018-06-03T04:25:34.318Z,93.18
2018-06-03T04:28:01.798Z,92.90
2018-06-03T04:30:29.286Z,92.55
2018-06-03T04:32:58.506Z,92.97
2018-06-03T04:35:26.306Z,93.15
2018-06-03T04:37:53.771Z,93.68
2018-06-03T04:40:21.259Z,93.44
2018-06-03T04:42:48.731Z,93.53
2018-06-03T04:45:16.223Z,93.50
2018-06-03T04:47:43.695Z,92.73
2018-06-03T04:50:11.214Z,92.93
2018-06-03T04:52:38.677Z,92.28
2018-06-03T04:55:06.197Z,90.57
2018-06-03T04:57:33.775Z,90.13
2018-06-03T05:00:01.372Z,89.98
2018-06-03T05:02:28.852Z,90.81
2018-06-03T05:04:56.359Z,90.51
2018-06-03T05:07:24.067Z,89.70
2018-06-03T05:09:51.587Z,89.76
2018-06-03T05:12:19.092Z,89.15
2018-06-03T05:14:46.567Z,88.12
2018-06-03T05:17:14.030Z,87.48
2018-06-03T05:19:41.622Z,88.23
2018-06-03T05:22:09.169Z,88.25
2018-06-03T05:24:36.666Z,89.07
2018-06-03T05:27:04.186Z,89.18
2018-06-03T05:29:31.759Z,89.49
2018-06-03T05:31:59.247Z,88.80
2018-06-03T05:34:26.750Z,88.06
2018-06-03T05:36:54.227Z,87.68
2018-06-03T05:39:21.843Z,88.24
2018-06-03T05:41:49.320Z,88.42
2018-06-03T05:44:16.815Z,88.33
2018-06-03T05:46:44.301Z,87.58
2018-06-03T05:49:11.791Z,86.38
2018-06-03T05:51:39.378Z,85.81
2018-06-03T05:54:07.687Z,86.33
2018-06-03T05:56:35.299Z,86.72
2018-06-03T05:59:02.798Z,86.34
2018-06-03T06:01:30.295Z,87.55
2018-06-03T06:03:57.822Z,86.79
2018-06-03T06:06:25.358Z,85.42
2018-06-03T06:08:52.890Z,84.25
2018-06-03T06:11:20.382Z,84.09
2018-06-03T06:13:48.128Z,84.50
2018-06-03T06:16:15.619Z,83.59
2018-06-03T06:18:43.126Z,83.32
2018-06-03T06:21:10.673Z,82.98
2018-06-03T06:23:38.239Z,82.63
2018-06-03T06:26:05.811Z,83.66
2018-06-03T06:28:33.346Z,83.81
2018-06-03T06:31:01.529Z,83.48
2018-06-03T06:33:29.099Z,83.21
2018-06-03T06:35:56.599Z,82.20
2018-06-03T06:38:24.130Z,82.15
2018-06-03T06:40:51.758Z,82.07
2018-06-03T06:43:19.262Z,81.94
2018-06-03T06:45:46.757Z,80.75
2018-06-03T06:48:14.226Z,79.98
2018-06-03T06:50:41.718Z,78.19
2018-06-03T06:53:09.194Z,76.12
2018-06-03T06:55:36.698Z,75.20
2018-06-03T06:58:04.293Z,74.77
2018-06-03T07:00:31.902Z,74.16
2018-06-03T07:02:59.372Z,75.15
2018-06-03T07:05:26.868Z,76.60
2018-06-03T07:07:54.367Z,75.94
2018-06-03T07:10:21.960Z,75.26
2018-06-03T07:12:49.466Z,76.50
2018-06-03T07:15:16.971Z,79.92
2018-06-03T07:17:44.471Z,80.01
2018-06-03T07:20:11.985Z,81.11
2018-06-03T07:22:39.469Z,79.52
2018-06-03T07:25:06.987Z,80.85
2018-06-03T07:27:34.470Z,80.53
2018-06-03T07:30:02.020Z,79.96
2018-06-03T07:32:29.727Z,81.19
2018-06-03T07:34:57.223Z,80.14
2018-06-03T07:37:24.699Z,78.84
2018-06-03T07:39:52.207Z,79.74
2018-06-03T07:42:19.719Z,79.54
2018-06-03T07:44:47.218Z,80.67
2018-06-03T07:47:14.749Z,81.52
2018-06-03T07:49:42.263Z,79.97
2018-06-03T07:52:09.741Z,79.77
2018-06-03T07:54:37.298Z,80.74
2018-06-03T07:57:04.791Z,79.33
2018-06-03T07:59:32.315Z,79.28
2018-06-03T08:01:59.828Z,80.21
2018-06-03T08:04:27.343Z,79.76
2018-06-03T08:06:54.858Z,80.04
2018-06-03T08:09:22.344Z,81.48
2018-06-03T08:11:49.851Z,80.97
2018-06-03T08:14:17.377Z,79.67
2018-06-03T08:16:44.879Z,80.34
2018-06-03T08:19:12.348Z,80.07
2018-06-03T08:21:39.853Z,80.21
2018-06-03T08:24:07.339Z,80.12
2018-06-03T08:26:34.828Z,78.73
2018-06-03T08:29:02.389Z,78.17
2018-06-03T08:31:29.939Z,77.54
2018-06-03T08:33:57.424Z,77.60
2018-06-03T08:36:24.952Z,76.40
2018-06-03T08:38:52.428Z,76.20
2018-06-03T08:41:19.926Z,75.34
2018-06-03T08:43:47.431Z,75.76
2018-06-03T08:46:14.981Z,77.27
2018-06-03T08:48:42.543Z,76.61
2018-06-03T08:51:10.102Z,77.69
2018-06-03T08:53:37.583Z,76.88
2018-06-03T08:56:05.087Z,77.61
2018-06-03T08:58:32.575Z,77.76
2018-06-03T09:01:00.120Z,79.41
2018-06-03T09:03:27.687Z,76.91
2018-06-03T09:05:55.183Z,76.31
2018-06-03T09:08:22.662Z,75.65
2018-06-03T09:10:50.254Z,75.02
2018-06-03T09:13:17.739Z,75.14
2018-06-03T09:15:45.246Z,75.69
2018-06-03T09:18:12.819Z,74.73
2018-06-03T09:20:40.420Z,77.19
2018-06-03T09:23:07.890Z,78.04
2018-06-03T09:25:35.498Z,78.14
2018-06-03T09:28:02.991Z,78.14
2018-06-03T09:30:30.459Z,77.98
2018-06-03T09:32:57.967Z,76.33
2018-06-03T09:35:25.824Z,75.27
2018-06-03T09:37:53.373Z,75.08
2018-06-03T09:40:20.952Z,73.81
2018-06-03T09:42:48.507Z,74.37
2018-06-03T09:45:16.073Z,75.23
2018-06-03T09:47:43.673Z,77.25
2018-06-03T09:50:11.194Z,77.85
2018-06-03T09:52:38.749Z,76.60
2018-06-03T09:55:06.238Z,75.04
2018-06-03T09:57:33.743Z,72.97
2018-06-03T10:00:01.237Z,72.32
2018-06-03T10:02:28.744Z,73.27
2018-06-03T10:04:56.231Z,71.71
2018-06-03T10:07:23.782Z,68.65
2018-06-03T10:09:51.255Z,71.89
2018-06-03T10:12:18.803Z,69.87
2018-06-03T10:14:46.351Z,69.41
2018-06-03T10:17:13.911Z,68.60
2018-06-03T10:19:41.631Z,70.00
2018-06-03T10:22:09.143Z,68.36
2018-06-03T10:24:36.644Z,69.12
2018-06-03T10:27:04.131Z,69.38
2018-06-03T10:29:31.651Z,67.83
2018-06-03T10:31:59.140Z,67.36
2018-06-03T10:34:26.726Z,66.30
2018-06-03T10:36:54.205Z,66.29
2018-06-03T10:39:21.717Z,62.99
2018-06-03T10:41:49.211Z,62.97
2018-06-03T10:44:16.751Z,64.65
2018-06-03T10:46:44.314Z,65.35
2018-06-03T10:49:11.835Z,63.85
2018-06-03T10:51:39.372Z,62.51
2018-06-03T10:54:06.868Z,63.51
2018-06-03T10:56:34.500Z,64.99
2018-06-03T10:59:02.012Z,63.80
2018-06-03T11:01:29.479Z,62.61
2018-06-03T11:03:56.972Z,64.40
2018-06-03T11:06:24.449Z,64.56
2018-06-03T11:08:51.949Z,63.93
2018-06-03T11:11:19.565Z,64.13
2018-06-03T11:13:47.161Z,63.83
2018-06-03T11:16:14.947Z,63.85
2018-06-03T11:18:42.434Z,63.97
2018-06-03T11:21:09.922Z,62.47
2018-06-03T11:23:37.420Z,61.17
2018-06-03T11:26:04.907Z,61.25
2018-06-03T11:28:32.438Z,61.52
2018-06-03T11:30:59.910Z,60.78
2018-06-03T11:33:27.424Z,60.11
2018-06-03T11:35:54.956Z,61.46
2018-06-03T11:38:22.536Z,61.83
2018-06-03T11:40:50.092Z,61.44
2018-06-03T11:43:17.711Z,63.04
2018-06-03T11:45:45.178Z,62.15
2018-06-03T11:48:12.660Z,62.14
2018-06-03T11:50:40.202Z,61.25
2018-06-03T11:53:07.671Z,60.55
2018-06-03T11:55:35.217Z,61.79
2018-06-03T11:58:14.593Z,60.06
2018-06-03T12:00:42.078Z,60.67
2018-06-03T12:03:09.679Z,59.73
2018-06-03T12:05:37.287Z,60.39
2018-06-03T12:08:04.759Z,58.83
2018-06-03T12:10:32.347Z,60.74
2018-06-03T12:13:00.367Z,61.29
2018-06-03T12:15:28.286Z,60.98
2018-06-03T12:17:55.735Z,60.88
2018-06-03T12:20:23.304Z,59.19
2018-06-03T12:22:50.799Z,60.76
2018-06-03T12:25:18.470Z,60.89
2018-06-03T12:27:45.953Z,59.57
2018-06-03T12:30:13.451Z,59.13
2018-06-03T12:32:40.922Z,60.06
2018-06-03T12:35:08.462Z,57.37
2018-06-03T12:37:36.011Z,59.13
2018-06-03T12:40:03.508Z,60.20
2018-06-03T12:42:31.019Z,62.25
2018-06-03T12:44:58.602Z,62.63
2018-06-03T12:47:26.102Z,63.63
2018-06-03T12:49:53.696Z,64.25
2018-06-03T12:52:21.198Z,63.11
2018-06-03T12:54:48.743Z,62.35
2018-06-03T12:57:16.229Z,62.06
2018-06-03T12:59:43.839Z,61.46
2018-06-03T13:02:11.384Z,62.11
2018-06-03T13:05:11.000Z,62.04
2018-06-03T13:07:39.304Z,60.91
2018-06-03T13:10:07.632Z,61.89
2018-06-03T13:12:35.928Z,61.67
2018-06-03T13:15:04.269Z,61.07
2018-06-03T13:17:32.632Z,62.66
2018-06-03T13:20:00.959Z,63.35
2018-06-03T13:22:29.267Z,60.97
2018-06-03T13:24:57.574Z,62.59
2018-06-03T13:27:25.980Z,63.28
2018-06-03T13:29:54.337Z,61.45
2018-06-03T13:32:22.647Z,61.43
2018-06-03T13:34:50.957Z,59.10
2018-06-03T13:37:19.270Z,60.63
2018-06-03T13:39:48.068Z,59.71
2018-06-03T13:42:16.425Z,61.72
2018-06-03T13:44:44.777Z,59.54
2018-06-03T13:47:13.087Z,58.96
2018-06-03T13:49:42.645Z,57.00
2018-06-03T13:52:11.051Z,55.62
2018-06-03T13:54:39.350Z,56.67
2018-06-03T13:57:07.713Z,56.39
2018-06-03T13:59:36.093Z,55.56
2018-06-03T14:02:04.572Z,55.69
2018-06-03T14:04:32.932Z,55.05
2018-06-03T14:07:01.237Z,54.02
2018-06-03T14:09:29.614Z,54.02
2018-06-03T14:11:57.890Z,55.60
2018-06-03T14:14:26.258Z,55.71
2018-06-03T14:16:54.714Z,55.17
2018-06-03T14:19:23.294Z,54.83
2018-06-03T14:21:51.639Z,54.83
2018-06-03T14:24:20.234Z,56.47
2018-06-03T14:26:48.731Z,55.85
2018-06-03T14:29:17.003Z,56.21
2018-06-03T14:31:45.564Z,55.19
2018-06-03T14:34:13.863Z,54.22
2018-06-03T14:36:42.288Z,54.42
2018-06-03T14:39:10.620Z,55.04
2018-06-03T14:41:39.707Z,54.86
2018-06-03T14:44:10.005Z,52.19
2018-06-03T14:46:38.447Z,52.03
2018-06-03T14:49:06.723Z,53.21
2018-06-03T14:51:35.053Z,52.68
2018-06-03T14:54:03.342Z,53.44
2018-06-03T14:56:31.645Z,53.02
2018-06-03T14:58:59.932Z,52.06
2018-06-03T15:01:28.432Z,51.33
2018-06-03T15:03:56.855Z,49.20
2018-06-03T15:06:25.255Z,50.37
2018-06-03T15:08:53.567Z,52.49
2018-06-03T15:11:21.963Z,51.74
2018-06-03T15:13:50.358Z,52.20
2018-06-03T15:16:18.818Z,53.48
2018-06-03T15:18:47.470Z,53.21
2018-06-03T15:21:15.897Z,52.47
2018-06-03T15:23:44.909Z,52.32
2018-06-03T15:26:13.294Z,52.36
2018-06-03T15:28:41.633Z,53.66
2018-06-03T15:31:09.928Z,54.60
2018-06-03T15:33:38.299Z,54.25
2018-06-03T15:36:07.784Z,52.51
2018-06-03T15:38:36.460Z,53.89
2018-06-03T15:41:04.806Z,54.45
2018-06-03T15:43:33.155Z,51.73
2018-06-03T15:46:01.455Z,54.20
2018-06-03T15:48:29.842Z,53.93
2018-06-03T15:50:58.169Z,54.64
2018-06-03T15:53:26.497Z,55.40
2018-06-03T15:55:54.893Z,55.18
2018-06-03T15:58:23.198Z,54.84
2018-06-03T16:00:51.580Z,54.75
2018-06-03T16:03:19.855Z,55.74
2018-06-03T16:05:48.180Z,56.80
2018-06-03T16:08:16.449Z,57.09
2018-06-03T16:10:45.333Z,58.06
2018-06-03T16:13:13.732Z,58.99
2018-06-03T16:15:42.132Z,60.18
2018-06-03T16:18:10.422Z,58.56
2018-06-03T16:20:38.736Z,59.92
2018-06-03T16:23:07.012Z,59.89
2018-06-03T16:25:35.312Z,60.50
2018-06-03T16:28:03.628Z,61.03
2018-06-03T16:30:38.379Z,62.38
2018-06-03T16:33:06.706Z,62.56
2018-06-03T16:35:35.188Z,62.80
2018-06-03T16:38:03.525Z,62.75
2018-06-03T16:40:31.970Z,63.20
2018-06-03T16:43:00.247Z,63.26
2018-06-03T16:45:28.620Z,65.21
2018-06-03T16:47:56.890Z,66.01
2018-06-03T16:50:25.204Z,65.58
2018-06-03T16:52:53.571Z,64.95
2018-06-03T16:55:21.855Z,65.15
2018-06-03T16:57:50.143Z,66.01
2018-06-03T17:00:18.437Z,66.25
2018-06-03T17:02:46.703Z,66.24
2018-06-03T17:05:15.050Z,66.35
2018-06-03T17:07:43.412Z,66.56
2018-06-03T17:10:11.688Z,66.46
2018-06-03T17:12:41.515Z,66.65
2018-06-03T17:15:09.945Z,67.40
2018-06-03T17:17:38.383Z,68.50
2018-06-03T17:20:06.832Z,67.47
2018-06-03T17:22:35.418Z,68.92
2018-06-03T17:25:03.881Z,69.25
2018-06-03T17:27:32.195Z,68.21
2018-06-03T17:30:00.707Z,70.45
2018-06-03T17:32:29.011Z,70.79
2018-06-03T17:34:57.308Z,70.65
2018-06-03T17:37:25.625Z,69.96
2018-06-03T17:39:53.923Z,69.60
2018-06-03T17:42:22.318Z,70.70
2018-06-03T17:44:50.606Z,70.52
2018-06-03T17:47:18.918Z,71.43
2018-06-03T17:49:48.543Z,70.75
2018-06-03T17:52:16.851Z,71.53
2018-06-03T17:54:45.127Z,71.35
2018-06-03T17:57:13.638Z,71.78
2018-06-03T17:59:41.931Z,72.77
2018-06-03T18:02:10.211Z,72.11
2018-06-03T18:04:38.532Z,72.30
2018-06-03T18:07:07.065Z,72.46
2018-06-03T18:09:35.591Z,73.11
2018-06-03T18:12:03.895Z,72.86
2018-06-03T18:14:32.274Z,73.28
2018-06-03T18:17:00.743Z,74.71
2018-06-03T18:19:29.074Z,74.89
2018-06-03T18:21:57.956Z,75.15
2018-06-03T18:24:26.523Z,75.86
2018-06-03T18:26:55.491Z,77.01
2018-06-03T18:29:23.948Z,77.65
2018-06-03T18:31:53.330Z,77.45
2018-06-03T18:34:21.813Z,76.54
2018-06-03T18:36:50.126Z,76.72
2018-06-03T18:39:18.556Z,77.80
2018-06-03T18:44:14.454Z,78.31
2018-06-03T18:46:42.885Z,78.59
2018-06-03T18:49:11.476Z,78.19
2018-06-03T18:51:40.168Z,77.34
2018-06-03T18:54:08.634Z,78.16
2018-06-03T18:56:36.998Z,77.25
2018-06-03T18:59:05.335Z,77.58
2018-06-03T19:01:33.640Z,78.74
2018-06-03T19:04:02.170Z,79.21
2018-06-03T19:06:30.676Z,80.23
2018-06-03T19:08:59.256Z,80.57
2018-06-03T19:11:27.562Z,80.91
2018-06-03T19:13:56.195Z,81.21
2018-06-03T19:16:24.928Z,79.98
2018-06-03T19:18:53.876Z,80.10
2018-06-03T19:21:22.641Z,79.87
2018-06-03T19:23:51.222Z,82.24
2018-06-03T19:26:19.910Z,81.71
2018-06-03T19:28:48.334Z,82.72
2018-06-03T19:31:16.622Z,82.93
2018-06-03T19:33:45.378Z,82.48
2018-06-03T19:36:13.643Z,81.72
2018-06-03T19:38:41.950Z,82.97
2018-06-03T19:41:10.403Z,81.96
2018-06-03T19:43:39.209Z,82.43
2018-06-03T19:46:07.708Z,83.12
2018-06-03T19:48:36.531Z,83.76
2018-06-03T19:51:05.181Z,84.27
2018-06-03T19:53:33.866Z,84.69
2018-06-03T19:56:02.219Z,84.58
2018-06-03T19:58:30.815Z,83.36
2018-06-03T20:00:59.106Z,84.27
2018-06-03T20:03:27.419Z,84.70
2018-06-03T20:05:55.728Z,85.05
2018-06-03T20:08:24.183Z,85.16
2018-06-03T20:10:52.542Z,85.67
2018-06-03T20:13:20.855Z,85.75
2018-06-03T20:15:49.273Z,85.76
2018-06-03T20:18:17.571Z,85.71
2018-06-03T20:20:45.999Z,85.61
2018-06-03T20:23:14.303Z,86.35
2018-06-03T20:25:42.610Z,86.79
2018-06-03T20:28:10.918Z,87.06
2018-06-03T20:30:39.278Z,86.71
2018-06-03T20:33:07.975Z,86.56
2018-06-03T20:35:36.278Z,86.84
2018-06-03T20:38:04.583Z,86.68
2018-06-03T20:40:32.898Z,86.24
2018-06-03T20:43:01.291Z,86.02
2018-06-03T20:45:29.572Z,85.76
2018-06-03T20:47:57.857Z,85.43
2018-06-03T20:50:26.440Z,86.63
2018-06-03T20:52:54.724Z,86.38
2018-06-03T20:55:23.106Z,85.67
2018-06-03T20:57:51.423Z,86.22
2018-06-03T21:00:19.742Z,86.04
2018-06-03T21:02:48.111Z,86.23
2018-06-03T21:05:16.432Z,86.42
2018-06-03T21:07:44.714Z,85.82
2018-06-03T21:10:13.014Z,86.59
2018-06-03T21:12:41.306Z,86.46
2018-06-03T21:15:09.615Z,86.62
2018-06-03T21:17:37.898Z,86.84
2018-06-03T21:20:06.218Z,87.26
2018-06-03T21:22:34.522Z,87.63
2018-06-03T21:25:02.810Z,87.51
2018-06-03T21:27:31.107Z,87.72
2018-06-03T21:29:59.468Z,87.95
2018-06-03T21:32:27.814Z,88.35
2018-06-03T21:34:56.138Z,87.59
2018-06-03T21:37:24.443Z,87.16
2018-06-03T21:39:52.755Z,87.04
2018-06-03T21:42:21.135Z,86.30
2018-06-03T21:44:49.439Z,86.42
2018-06-03T21:47:17.883Z,86.50
2018-06-03T21:49:46.208Z,86.55
2018-06-03T21:52:14.639Z,87.25
2018-06-03T21:54:42.950Z,87.79
2018-06-03T21:57:12.306Z,87.98
2018-06-03T21:59:40.699Z,87.67
2018-06-03T22:02:09.101Z,86.86
2018-06-03T22:04:37.406Z,86.72
2018-06-03T22:07:05.819Z,87.22
2018-06-03T22:09:34.097Z,87.06
2018-06-03T22:12:02.392Z,86.77
2018-06-03T22:14:30.738Z,88.21
2018-06-03T22:16:59.042Z,88.47
2018-06-03T22:20:01.060Z,88.41
2018-06-03T22:22:57.642Z,88.29
2018-06-03T22:25:26.995Z,88.20
2018-06-03T22:27:55.284Z,88.82
2018-06-03T22:30:23.687Z,89.18
2018-06-03T22:32:52.102Z,88.84
2018-06-03T22:35:20.422Z,87.78
2018-06-03T22:37:48.790Z,88.01
2018-06-03T22:40:17.094Z,87.91
2018-06-03T22:42:45.378Z,88.57
2018-06-03T22:45:13.671Z,88.60
2018-06-03T22:47:41.947Z,87.95
2018-06-03T22:50:10.245Z,88.08
2018-06-03T22:52:38.534Z,87.78
2018-06-03T22:55:06.818Z,87.19
2018-06-03T22:57:45.134Z,86.60
2018-06-03T23:00:19.579Z,87.39
2018-06-03T23:03:20.993Z,89.10
2018-06-03T23:05:49.296Z,89.57
2018-06-03T23:08:17.635Z,89.19
2018-06-03T23:10:45.947Z,87.87
2018-06-03T23:13:15.370Z,87.94
2018-06-03T23:15:43.719Z,88.08
2018-06-03T23:18:12.008Z,88.24
2018-06-03T23:20:40.381Z,87.92
2018-06-03T23:23:08.654Z,88.28
2018-06-03T23:25:36.961Z,88.36
2018-06-03T23:28:05.389Z,88.74
2018-06-03T23:30:33.689Z,89.09
2018-06-03T23:33:02.031Z,88.91
2018-06-03T23:35:30.374Z,88.45
2018-06-03T23:37:58.663Z,88.38
2018-06-03T23:40:26.935Z,88.04
2018-06-03T23:42:55.243Z,87.91
2018-06-03T23:45:23.588Z,88.51
2018-06-03T23:47:51.889Z,88.53
2018-06-03T23:50:20.202Z,88.52
2018-06-03T23:52:48.539Z,88.22
2018-06-03T23:55:16.897Z,88.09
2018-06-03T23:57:45.262Z,87.38
